Time;durP1;ratioP1;P1;durP2;ratioP2;P2;SDS_P1;SDS_P2;PMS_P1;PMS_P2;Temp;Humidity;BMP_temperature;BMP_pressure;BME280_temperature;BME280_humidity;BME280_pressure;Samples;Min_cycle;Max_cycle;Signal;HPM_P1;HPM_P2
2023/10/18 00:02:16;;;;;;;6.72;5.68;;;12.60;95.70;;;;;;5013634;28;20021;-58
2023/10/18 00:04:44;;;;;;;6.18;5.03;;;12.60;95.70;;;;;;5013527;28;20459;-58
2023/10/18 00:07:12;;;;;;;6.82;5.05;;;12.70;95.70;;;;;;5013527;28;20044;-58
2023/10/18 00:09:39;;;;;;;5.53;4.70;;;12.60;95.80;;;;;;5013278;28;20033;-57
2023/10/18 00:12:07;;;;;;;7.32;4.88;;;12.50;95.80;;;;;;5013582;28;20025;-58
2023/10/18 00:14:33;;;;;;;8.35;5.13;;;12.50;95.80;;;;;;5013155;28;20096;-60
2023/10/18 00:16:59;;;;;;;6.05;5.07;;;12.50;95.90;;;;;;5013499;28;20030;-58
2023/10/18 00:19:26;;;;;;;6.40;4.90;;;12.50;95.80;;;;;;5013432;28;20387;-59
2023/10/18 00:21:54;;;;;;;5.90;5.00;;;12.50;95.80;;;;;;5013399;28;20052;-58
2023/10/18 00:24:20;;;;;;;5.28;4.70;;;12.50;95.80;;;;;;5013215;28;20022;-58
2023/10/18 00:26:46;;;;;;;7.95;5.10;;;12.50;95.80;;;;;;5013344;28;20033;-58
2023/10/18 00:29:12;;;;;;;7.60;5.32;;;12.40;95.80;;;;;;5012935;28;20073;-58
2023/10/18 00:31:37;;;;;;;5.10;4.57;;;12.40;95.80;;;;;;5028580;28;20461;-58
2023/10/18 00:34:06;;;;;;;5.68;4.85;;;12.40;95.90;;;;;;5013280;28;20101;-58
2023/10/18 00:36:32;;;;;;;7.60;4.85;;;12.40;95.80;;;;;;5013274;28;20368;-61
2023/10/18 00:38:57;;;;;;;7.13;4.75;;;12.40;95.80;;;;;;5013335;28;20561;-60
2023/10/18 00:41:32;;;;;;;6.60;5.43;;;12.30;95.80;;;;;;5013293;28;20022;-58
2023/10/18 00:44:04;;;;;;;7.43;4.72;;;12.40;95.80;;;;;;5012842;28;20459;-58
2023/10/18 00:46:29;;;;;;;5.35;4.20;;;12.40;95.70;;;;;;5013125;28;20061;-58
2023/10/18 00:48:55;;;;;;;5.70;4.70;;;12.30;95.80;;;;;;5013095;28;20368;-58
2023/10/18 00:51:24;;;;;;;7.90;4.40;;;12.30;95.80;;;;;;5013142;28;20057;-58
2023/10/18 00:53:51;;;;;;;8.32;5.13;;;12.30;95.70;;;;;;5013377;28;20022;-59
2023/10/18 00:56:17;;;;;;;7.28;4.75;;;12.40;95.80;;;;;;5013139;28;20037;-58
2023/10/18 00:58:44;;;;;;;7.05;4.53;;;12.20;95.80;;;;;;5012987;28;20084;-58
2023/10/18 01:01:10;;;;;;;7.70;5.03;;;12.20;95.80;;;;;;5012930;28;20042;-60
2023/10/18 01:03:38;;;;;;;5.07;4.20;;;12.20;95.80;;;;;;5013072;28;20018;-58
2023/10/18 01:06:20;;;;;;;8.25;4.70;;;12.20;95.80;;;;;;5012750;28;20018;-58
2023/10/18 01:08:49;;;;;;;6.13;4.43;;;12.20;95.80;;;;;;5015488;28;20104;-70
2023/10/18 01:11:18;;;;;;;6.40;4.50;;;12.20;95.80;;;;;;5016567;28;20084;-59
2023/10/18 01:13:47;;;;;;;7.47;4.57;;;12.20;95.70;;;;;;5016434;28;20053;-65
2023/10/18 01:16:15;;;;;;;6.80;4.47;;;12.20;95.70;;;;;;5016408;28;20112;-67
2023/10/18 01:18:43;;;;;;;5.93;3.90;;;12.20;95.70;;;;;;5016906;28;20049;-68
2023/10/18 01:21:17;;;;;;;7.32;4.70;;;12.20;95.80;;;;;;5016315;28;20104;-61
2023/10/18 01:23:49;;;;;;;5.57;3.95;;;12.10;95.70;;;;;;5016503;28;20463;-70
2023/10/18 01:26:15;;;;;;;6.63;4.25;;;12.10;95.80;;;;;;5016053;28;20030;-58
2023/10/18 01:28:41;;;;;;;6.03;4.20;;;12.10;95.70;;;;;;5016359;28;20073;-72
2023/10/18 01:31:07;;;;;;;6.60;4.20;;;12.10;95.70;;;;;;5016211;28;20073;-63
2023/10/18 01:33:43;;;;;;;7.18;4.10;;;12.00;95.70;;;;;;5016297;28;20022;-67
2023/10/18 01:36:15;;;;;;;8.20;4.20;;;12.00;95.80;;;;;;5016274;28;20109;-66
2023/10/18 01:38:48;;;;;;;8.65;3.83;;;12.00;95.70;;;;;;5016320;28;20062;-58
2023/10/18 01:44:10;;;;;;;6.55;4.68;;;12.10;95.80;;;;;;5016386;28;20034;-63
2023/10/18 01:46:37;;;;;;;7.78;4.63;;;12.00;95.70;;;;;;5016050;28;20022;-73
2023/10/18 01:49:04;;;;;;;7.28;4.75;;;12.00;95.80;;;;;;5015922;28;20149;-57
2023/10/18 01:51:30;;;;;;;7.40;4.60;;;11.90;95.90;;;;;;5015831;28;20387;-58
2023/10/18 01:53:56;;;;;;;4.97;4.40;;;11.90;95.90;;;;;;5016047;28;20456;-59
2023/10/18 01:56:22;;;;;;;6.05;4.50;;;11.90;95.90;;;;;;5015590;28;20033;-59
2023/10/18 01:58:49;;;;;;;6.97;4.25;;;11.90;95.90;;;;;;5031122;28;20442;-58
2023/10/18 02:01:16;;;;;;;5.95;4.30;;;12.00;95.80;;;;;;5015634;28;20088;-58
2023/10/18 02:03:44;;;;;;;6.13;4.07;;;12.00;95.80;;;;;;5015786;28;20068;-58
2023/10/18 02:06:10;;;;;;;5.72;4.05;;;11.90;95.80;;;;;;5015561;28;20493;-58
2023/10/18 02:08:36;;;;;;;8.07;4.80;;;11.90;95.90;;;;;;5015696;28;20026;-58
2023/10/18 02:11:06;;;;;;;8.60;4.40;;;11.80;95.80;;;;;;5015624;28;20037;-59
2023/10/18 02:13:32;;;;;;;5.93;4.43;;;11.90;95.90;;;;;;5015626;28;20022;-62
2023/10/18 02:15:57;;;;;;;6.50;4.13;;;11.90;95.80;;;;;;5015624;28;20117;-57
2023/10/18 02:18:23;;;;;;;6.32;4.50;;;12.00;95.70;;;;;;5015525;28;20032;-57
2023/10/18 02:20:52;;;;;;;4.50;3.83;;;11.90;95.70;;;;;;5015550;28;20026;-72
2023/10/18 02:23:21;;;;;;;4.70;3.60;;;11.90;95.70;;;;;;5015238;28;20022;-58
2023/10/18 02:25:47;;;;;;;5.53;3.75;;;11.90;95.80;;;;;;5015321;28;20030;-58
2023/10/18 02:28:23;;;;;;;5.30;4.20;;;11.90;95.80;;;;;;5015237;28;20029;-58
2023/10/18 02:31:21;;;;;;;7.47;4.25;;;11.90;95.80;;;;;;5015172;28;20037;-60
2023/10/18 02:33:48;;;;;;;4.60;4.03;;;11.90;95.80;;;;;;5015126;28;20024;-58
2023/10/18 02:36:21;;;;;;;6.88;4.47;;;11.90;95.80;;;;;;5014994;28;20100;-59
2023/10/18 02:38:49;;;;;;;5.40;3.80;;;11.90;95.70;;;;;;5014609;28;20022;-69
2023/10/18 02:41:15;;;;;;;5.88;4.07;;;11.90;95.80;;;;;;5013252;28;20038;-69
2023/10/18 02:43:51;;;;;;;4.95;3.95;;;11.80;95.80;;;;;;5014871;28;20022;-65
2023/10/18 02:46:20;;;;;;;4.40;3.42;;;11.80;95.70;;;;;;5015094;28;20049;-61
2023/10/18 02:48:51;;;;;;;5.35;3.75;;;11.80;95.80;;;;;;5014842;28;20018;-68
2023/10/18 02:51:24;;;;;;;6.40;3.75;;;11.70;95.90;;;;;;5014819;28;20030;-72
2023/10/18 02:53:51;;;;;;;4.65;3.90;;;11.70;95.90;;;;;;5014426;28;20030;-62
2023/10/18 02:56:17;;;;;;;5.70;3.92;;;11.80;95.90;;;;;;5014822;28;20057;-72
2023/10/18 02:58:48;;;;;;;6.85;4.60;;;11.70;95.90;;;;;;5014674;28;20033;-69
2023/10/18 03:01:14;;;;;;;5.57;3.33;;;11.70;95.90;;;;;;5014699;28;20052;-63
2023/10/18 03:03:40;;;;;;;7.45;4.45;;;11.60;96.00;;;;;;5014504;28;20471;-59
2023/10/18 03:06:13;;;;;;;4.78;4.10;;;11.60;96.10;;;;;;5014585;28;20022;-62
2023/10/18 03:08:48;;;;;;;5.63;3.88;;;11.70;96.00;;;;;;5012547;28;20232;-60
2023/10/18 03:11:14;;;;;;;4.97;3.72;;;11.70;95.90;;;;;;5014169;28;20030;-59
2023/10/18 03:13:42;;;;;;;6.20;4.22;;;11.70;95.90;;;;;;5000806;28;20038;-55
2023/10/18 03:18:37;;;;;;;6.25;4.20;;;11.70;95.90;;;;;;5002702;28;20070;-60
2023/10/18 03:21:08;;;;;;;6.45;4.55;;;11.70;95.90;;;;;;5013332;28;20026;-64
2023/10/18 03:23:44;;;;;;;4.35;3.95;;;11.80;95.90;;;;;;4997600;28;20538;-71
2023/10/18 03:26:11;;;;;;;5.60;4.13;;;11.70;95.90;;;;;;4994436;28;20490;-65
2023/10/18 03:28:40;;;;;;;4.55;3.30;;;11.80;95.70;;;;;;4994644;28;20117;-63
2023/10/18 03:31:22;;;;;;;7.93;4.10;;;11.80;95.70;;;;;;4997831;28;20385;-57
2023/10/18 03:34:02;;;;;;;5.25;3.88;;;11.70;95.80;;;;;;4993742;28;20026;-61
2023/10/18 03:36:33;;;;;;;4.15;3.55;;;11.70;95.70;;;;;;4998535;28;20149;-57
2023/10/18 03:39:15;;;;;;;5.60;3.67;;;11.70;95.90;;;;;;4994375;28;20030;-54
2023/10/18 03:41:41;;;;;;;7.10;4.47;;;11.60;95.90;;;;;;5008772;28;20038;-69
2023/10/18 03:44:13;;;;;;;5.20;3.75;;;11.60;95.90;;;;;;4992296;28;20168;-62
2023/10/18 03:46:46;;;;;;;4.05;3.40;;;11.70;95.90;;;;;;4992622;28;20108;-58
2023/10/18 03:52:01;;;;;;;5.85;3.92;;;11.60;96.10;;;;;;4991845;28;20038;-61
2023/10/18 03:54:28;;;;;;;4.65;3.80;;;11.60;96.00;;;;;;4994222;28;20022;-56
2023/10/18 03:56:55;;;;;;;6.93;4.25;;;11.60;95.90;;;;;;4996750;28;20452;-59
2023/10/18 03:59:25;;;;;;;5.32;3.70;;;11.60;96.00;;;;;;4993986;28;20026;-57
2023/10/18 04:02:07;;;;;;;6.25;4.05;;;11.50;96.00;;;;;;5007722;28;20048;-64
2023/10/18 04:04:37;;;;;;;5.35;4.43;;;11.50;96.10;;;;;;5013687;28;20022;-71
2023/10/18 04:07:13;;;;;;;6.60;4.32;;;11.60;96.00;;;;;;5003488;28;20022;-70
2023/10/18 04:12:19;;;;;;;7.82;4.05;;;11.60;96.10;;;;;;5013757;28;20033;-58
2023/10/18 04:14:58;;;;;;;5.50;3.58;;;11.50;96.10;;;;;;5013432;28;20109;-62
2023/10/18 04:20:01;;;;;;;7.25;4.00;;;11.50;96.10;;;;;;4994034;28;20046;-63
2023/10/18 04:22:30;;;;;;;5.30;4.00;;;11.50;96.10;;;;;;4993591;28;20053;-70
2023/10/18 04:24:56;;;;;;;6.40;3.85;;;11.60;96.10;;;;;;4993618;28;20026;-60
2023/10/18 04:27:23;;;;;;;5.75;3.40;;;11.50;96.20;;;;;;5003100;28;20477;-63
2023/10/18 04:29:49;;;;;;;6.75;3.13;;;11.90;96.10;;;;;;5013063;28;20038;-55
2023/10/18 04:32:18;;;;;;;4.25;2.92;;;12.50;95.50;;;;;;5012045;28;20148;-61
2023/10/18 04:34:46;;;;;;;4.93;3.10;;;12.90;94.90;;;;;;5013031;28;20018;-56
2023/10/18 04:37:14;;;;;;;3.97;3.00;;;13.10;94.80;;;;;;5010605;28;20022;-58
2023/10/18 04:39:40;;;;;;;4.35;3.55;;;13.10;94.30;;;;;;5003212;28;20038;-56
2023/10/18 04:42:07;;;;;;;3.60;3.05;;;13.20;94.40;;;;;;4995421;28;20026;-60
2023/10/18 04:44:36;;;;;;;3.90;3.00;;;13.30;94.30;;;;;;4998239;28;20467;-62
2023/10/18 04:47:14;;;;;;;3.08;2.78;;;13.30;94.20;;;;;;5009172;28;20053;-63
2023/10/18 04:49:41;;;;;;;4.85;3.10;;;13.30;94.30;;;;;;5016696;28;20092;-57
2023/10/18 04:52:17;;;;;;;3.88;3.13;;;13.30;94.10;;;;;;5008642;28;20030;-58
2023/10/18 04:54:59;;;;;;;4.45;3.47;;;13.40;94.10;;;;;;4998375;28;20062;-69
2023/10/18 04:57:25;;;;;;;6.15;3.55;;;13.10;94.10;;;;;;4998266;28;20439;-73
2023/10/18 04:59:59;;;;;;;5.07;4.03;;;12.50;94.60;;;;;;5013095;28;20497;-56
2023/10/18 05:02:29;;;;;;;4.90;3.78;;;12.20;95.00;;;;;;5015960;28;20503;-59
2023/10/18 05:04:57;;;;;;;5.40;3.45;;;12.20;95.30;;;;;;4998992;28;20088;-61
2023/10/18 05:07:40;;;;;;;4.47;3.00;;;12.20;95.40;;;;;;5011757;28;20042;-55
2023/10/18 05:10:16;;;;;;;6.18;4.00;;;12.10;95.70;;;;;;4995287;28;20045;-60
2023/10/18 05:13:01;;;;;;;4.75;3.78;;;12.00;95.50;;;;;;4996737;28;20030;-59
2023/10/18 05:15:31;;;;;;;8.05;4.45;;;12.00;95.50;;;;;;4997007;28;20035;-57
2023/10/18 05:18:15;;;;;;;6.05;4.00;;;11.90;95.60;;;;;;4998656;28;20395;-56
2023/10/18 05:23:10;;;;;;;7.18;3.60;;;11.80;95.80;;;;;;5015644;28;20033;-53
2023/10/18 05:25:45;;;;;;;5.30;3.88;;;11.80;95.80;;;;;;5005948;28;20482;-54
2023/10/18 05:28:46;;;;;;;4.50;3.95;;;11.70;95.80;;;;;;4998328;28;20073;-68
2023/10/18 05:41:28;;;;;;;5.35;3.55;;;11.60;96.10;;;;;;4998343;28;20038;-75
2023/10/18 05:44:01;;;;;;;5.80;3.55;;;11.70;96.10;;;;;;5006134;28;20034;-51
2023/10/18 05:46:28;;;;;;;4.63;3.55;;;11.60;96.00;;;;;;5001688;28;20077;-53
2023/10/18 05:48:57;;;;;;;6.88;3.67;;;11.60;96.00;;;;;;5010351;28;20068;-61
2023/10/18 05:53:50;;;;;;;6.35;3.97;;;11.60;96.20;;;;;;4999568;28;20109;-56
2023/10/18 05:56:20;;;;;;;5.93;4.68;;;11.50;96.20;;;;;;5003181;28;20471;-57
2023/10/18 05:58:46;;;;;;;4.40;3.35;;;11.60;96.30;;;;;;4997622;28;20475;-58
2023/10/18 06:01:13;;;;;;;7.70;4.00;;;11.60;96.20;;;;;;5010467;28;20030;-72
2023/10/18 06:03:39;;;;;;;6.53;3.60;;;11.50;96.30;;;;;;5015464;28;20130;-54
2023/10/18 06:06:08;;;;;;;5.15;3.88;;;11.50;96.30;;;;;;5012286;28;20440;-65
2023/10/18 06:08:34;;;;;;;7.10;4.22;;;11.60;96.30;;;;;;5006467;28;20099;-57
2023/10/18 06:11:06;;;;;;;7.65;3.75;;;11.50;96.40;;;;;;5010799;28;20155;-58
2023/10/18 06:13:36;;;;;;;5.20;3.97;;;11.50;96.40;;;;;;5006596;28;20464;-60
2023/10/18 06:16:20;;;;;;;5.78;4.07;;;11.60;96.40;;;;;;5008009;28;20021;-58
2023/10/18 06:18:48;;;;;;;5.07;3.92;;;11.60;96.40;;;;;;5013664;28;20026;-63
2023/10/18 06:21:18;;;;;;;5.28;3.88;;;11.50;96.50;;;;;;5013283;28;20042;-58
2023/10/18 06:23:59;;;;;;;6.40;4.15;;;11.40;96.80;;;;;;5003554;28;20030;-60
2023/10/18 06:26:28;;;;;;;5.90;3.87;;;11.50;96.60;;;;;;5010178;28;20026;-61
2023/10/18 06:29:21;;;;;;;6.32;4.28;;;11.70;96.60;;;;;;5009491;28;20026;-56
2023/10/18 06:31:49;;;;;;;4.32;3.45;;;11.80;96.60;;;;;;4995114;28;20391;-66
2023/10/18 06:34:17;;;;;;;5.20;3.75;;;11.80;96.30;;;;;;4995518;28;20029;-66
2023/10/18 06:36:49;;;;;;;6.88;3.70;;;11.90;96.30;;;;;;4995674;28;20027;-68
2023/10/18 06:39:34;;;;;;;7.88;4.22;;;11.80;96.30;;;;;;4995373;28;20035;-70
2023/10/18 06:41:59;;;;;;;4.28;3.50;;;11.80;96.20;;;;;;4995301;28;20030;-61
2023/10/18 06:44:30;;;;;;;4.72;3.45;;;11.70;96.40;;;;;;4995579;28;20015;-61
2023/10/18 06:46:57;;;;;;;4.53;3.83;;;11.90;96.40;;;;;;4995351;28;20046;-68
2023/10/18 06:49:25;;;;;;;7.03;3.47;;;11.80;96.20;;;;;;4995093;28;20030;-57
2023/10/18 06:51:51;;;;;;;6.22;3.55;;;11.80;96.50;;;;;;4995295;28;20030;-65
2023/10/18 06:54:32;;;;;;;7.40;4.22;;;11.80;96.20;;;;;;4995039;28;20068;-57
2023/10/18 06:57:15;;;;;;;8.48;4.20;;;11.80;96.30;;;;;;4995790;28;20030;-61
2023/10/18 06:59:50;;;;;;;5.68;3.42;;;11.80;96.40;;;;;;4994744;28;20353;-59
2023/10/18 07:02:16;;;;;;;4.82;3.35;;;12.00;96.30;;;;;;4995143;28;20022;-58
2023/10/18 07:04:51;;;;;;;5.45;3.33;;;11.90;96.30;;;;;;4994915;28;20037;-58
2023/10/18 07:07:20;;;;;;;5.30;3.40;;;11.80;96.30;;;;;;4994844;28;20022;-57
2023/10/18 07:09:49;;;;;;;5.40;3.67;;;12.00;96.40;;;;;;4994672;28;20038;-58
2023/10/18 07:12:17;;;;;;;14.57;3.45;;;12.00;96.20;;;;;;4994925;28;20438;-58
2023/10/18 07:14:43;;;;;;;4.53;3.33;;;12.00;96.40;;;;;;4994382;28;20030;-59
2023/10/18 07:17:14;;;;;;;5.97;3.22;;;12.10;96.20;;;;;;4994901;28;20037;-62
2023/10/18 07:19:49;;;;;;;4.05;3.22;;;12.20;96.10;;;;;;4994592;28;20471;-58
2023/10/18 07:22:18;;;;;;;6.38;3.35;;;12.20;96.20;;;;;;4994850;28;20022;-59
2023/10/18 07:24:54;;;;;;;7.90;3.58;;;12.20;96.10;;;;;;4994582;28;20517;-58
2023/10/18 07:27:23;;;;;;;5.97;3.28;;;12.20;96.00;;;;;;4994866;28;20022;-68
2023/10/18 07:29:49;;;;;;;6.63;4.03;;;12.10;96.10;;;;;;4994456;28;20097;-58
2023/10/18 07:32:20;;;;;;;5.95;4.03;;;12.20;96.10;;;;;;4999972;28;20022;-55
2023/10/18 07:34:48;;;;;;;5.82;3.53;;;12.10;96.00;;;;;;4997519;28;20026;-55
2023/10/18 07:37:41;;;;;;;6.97;3.67;;;12.10;96.10;;;;;;5003858;28;20025;-54
2023/10/18 07:40:21;;;;;;;9.40;4.03;;;12.00;96.20;;;;;;4994086;28;20428;-56
2023/10/18 07:42:51;;;;;;;6.07;3.20;;;12.00;96.10;;;;;;4994315;28;20029;-58
2023/10/18 07:45:21;;;;;;;5.47;3.33;;;12.00;96.20;;;;;;4993897;28;20030;-56
2023/10/18 07:47:53;;;;;;;6.38;3.63;;;12.00;96.20;;;;;;4994406;28;20023;-59
2023/10/18 07:53:12;;;;;;;4.53;3.30;;;12.10;96.40;;;;;;4999160;28;20117;-58
2023/10/18 07:55:39;;;;;;;5.07;3.63;;;12.10;96.30;;;;;;5013762;28;20079;-56
2023/10/18 07:58:25;;;;;;;7.88;4.35;;;12.20;96.30;;;;;;5013455;28;20022;-56
2023/10/18 08:03:31;;;;;;;4.95;3.38;;;12.20;96.20;;;;;;4994250;28;20030;-55
2023/10/18 08:05:59;;;;;;;6.78;3.72;;;12.30;96.30;;;;;;4993822;28;20029;-58
2023/10/18 08:08:25;;;;;;;5.15;3.15;;;12.30;96.20;;;;;;4994041;28;20382;-56
2023/10/18 08:10:54;;;;;;;8.82;4.13;;;12.30;96.20;;;;;;4993736;28;20380;-55
2023/10/18 08:13:26;;;;;;;5.25;3.45;;;12.30;96.20;;;;;;4993700;28;20042;-55
2023/10/18 08:15:56;;;;;;;5.83;3.47;;;12.30;96.40;;;;;;5001892;28;20054;-55
2023/10/18 08:21:08;;;;;;;6.22;3.28;;;12.40;96.10;;;;;;5008260;28;20116;-70
2023/10/18 08:23:35;;;;;;;6.20;3.90;;;12.50;96.20;;;;;;5013220;28;20029;-61
2023/10/18 08:26:06;;;;;;;6.88;3.50;;;12.50;96.10;;;;;;5012679;28;20471;-57
2023/10/18 08:28:38;;;;;;;5.40;3.50;;;12.40;96.30;;;;;;5013017;28;20483;-58
2023/10/18 08:31:27;;;;;;;4.30;3.65;;;12.40;96.30;;;;;;4996075;28;20036;-56
2023/10/18 08:33:57;;;;;;;8.38;4.35;;;12.40;96.30;;;;;;4993772;28;20022;-58
2023/10/18 08:36:32;;;;;;;7.43;3.45;;;12.40;96.20;;;;;;4993774;28;20033;-61
2023/10/18 08:39:02;;;;;;;4.93;3.67;;;12.40;96.30;;;;;;5007392;28;20028;-57
2023/10/18 08:41:32;;;;;;;6.90;3.83;;;12.40;96.30;;;;;;5010468;28;20104;-69
2023/10/18 08:44:15;;;;;;;6.72;3.78;;;12.50;96.30;;;;;;5009458;28;20121;-62
2023/10/18 08:46:55;;;;;;;6.50;3.75;;;12.50;96.20;;;;;;5013284;28;20025;-58
2023/10/18 08:49:22;;;;;;;5.80;3.28;;;12.50;96.30;;;;;;5009585;28;20088;-63
2023/10/18 08:51:56;;;;;;;5.68;3.90;;;12.50;96.40;;;;;;4995345;28;20120;-58
2023/10/18 08:54:24;;;;;;;4.78;3.58;;;12.50;96.20;;;;;;4993342;28;20026;-58
2023/10/18 08:56:51;;;;;;;6.07;3.53;;;12.60;96.20;;;;;;5008196;28;20038;-55
2023/10/18 08:59:18;;;;;;;5.63;3.58;;;12.60;96.20;;;;;;5005277;28;20376;-57
2023/10/18 09:04:31;;;;;;;6.38;3.75;;;12.70;96.20;;;;;;5005601;28;20187;-66
2023/10/18 09:07:18;;;;;;;6.63;3.67;;;12.70;96.10;;;;;;5012700;28;20022;-58
2023/10/18 09:09:53;;;;;;;4.80;3.63;;;12.80;96.10;;;;;;5012905;28;20532;-56
2023/10/18 09:15:29;;;;;;;7.95;4.18;;;12.80;96.10;;;;;;4992228;28;20046;-64
2023/10/18 09:17:56;;;;;;;4.63;3.85;;;12.80;96.10;;;;;;4992031;28;20018;-60
2023/10/18 09:20:26;;;;;;;7.75;3.92;;;12.90;96.10;;;;;;4993443;28;20076;-58
2023/10/18 09:22:54;;;;;;;7.13;4.10;;;12.90;96.10;;;;;;4993322;28;20184;-55
2023/10/18 09:25:24;;;;;;;4.80;3.40;;;13.00;96.10;;;;;;4993090;28;20046;-57
2023/10/18 09:27:51;;;;;;;14.63;4.25;;;13.10;96.00;;;;;;4993087;28;20387;-59
2023/10/18 09:30:20;;;;;;;13.52;4.40;;;13.10;95.80;;;;;;5003171;28;20030;-61
2023/10/18 09:32:47;;;;;;;6.60;3.97;;;12.90;96.00;;;;;;5009281;28;20030;-60
2023/10/18 09:35:13;;;;;;;6.63;4.43;;;12.90;95.90;;;;;;5006628;28;20112;-69
2023/10/18 09:37:45;;;;;;;7.32;3.88;;;13.00;96.10;;;;;;5015105;28;20018;-57
2023/10/18 09:40:11;;;;;;;5.78;3.60;;;12.90;96.10;;;;;;5015735;28;20030;-61
2023/10/18 09:42:38;;;;;;;7.18;3.88;;;13.00;96.10;;;;;;5016168;28;20061;-55
2023/10/18 09:45:08;;;;;;;5.72;4.10;;;13.00;96.00;;;;;;5016143;28;20131;-59
2023/10/18 09:47:35;;;;;;;6.93;4.55;;;13.10;96.10;;;;;;5015967;28;20029;-65
2023/10/18 09:50:07;;;;;;;6.25;4.07;;;13.20;96.00;;;;;;5015893;28;20083;-61
2023/10/18 09:52:47;;;;;;;3.97;3.20;;;13.30;96.00;;;;;;5007684;28;20065;-58
2023/10/18 09:55:20;;;;;;;4.63;3.55;;;13.30;96.10;;;;;;5030641;28;20041;-60
2023/10/18 09:57:59;;;;;;;4.47;3.83;;;13.30;96.00;;;;;;5015710;28;20030;-57
2023/10/18 10:00:31;;;;;;;8.10;3.95;;;13.40;96.00;;;;;;5010101;28;20495;-56
2023/10/18 10:02:59;;;;;;;10.50;3.70;;;13.30;95.90;;;;;;5015278;28;20127;-58
2023/10/18 10:05:27;;;;;;;5.72;3.38;;;13.30;96.10;;;;;;5006774;28;20022;-62
2023/10/18 10:08:00;;;;;;;6.10;3.55;;;13.40;96.10;;;;;;5004570;28;20026;-62
2023/10/18 10:10:44;;;;;;;7.43;3.40;;;13.40;96.10;;;;;;5010953;28;20052;-55
2023/10/18 10:13:18;;;;;;;5.80;3.45;;;13.50;95.90;;;;;;5005866;28;20037;-62
2023/10/18 10:15:55;;;;;;;8.00;4.05;;;13.50;95.90;;;;;;5015290;28;20045;-59
2023/10/18 10:19:12;;;;;;;7.38;4.13;;;13.50;96.00;;;;;;4995846;28;20479;-57
2023/10/18 10:21:40;;;;;;;7.45;3.90;;;13.60;96.10;;;;;;5012558;28;20033;-57
2023/10/18 10:24:53;;;;;;;4.65;3.67;;;13.60;95.90;;;;;;5006568;28;20026;-56
2023/10/18 10:27:27;;;;;;;3.85;3.22;;;13.60;95.90;;;;;;5012828;28;20026;-55
2023/10/18 10:30:46;;;;;;;8.50;3.42;;;13.60;96.00;;;;;;5008052;28;20428;-56
2023/10/18 10:36:37;;;;;;;7.63;3.58;;;13.60;96.00;;;;;;5002861;28;20052;-55
2023/10/18 10:39:03;;;;;;;8.20;3.40;;;13.60;96.00;;;;;;5006617;28;20022;-61
2023/10/18 10:41:52;;;;;;;6.85;3.88;;;13.80;96.10;;;;;;5000574;28;20033;-55
2023/10/18 10:44:23;;;;;;;8.18;3.83;;;13.80;96.00;;;;;;5018050;28;20022;-59
2023/10/18 10:46:53;;;;;;;6.45;3.65;;;13.80;96.00;;;;;;5014405;28;20112;-63
2023/10/18 10:49:48;;;;;;;6.57;3.90;;;13.80;95.90;;;;;;5005651;28;20157;-58
2023/10/18 10:52:18;;;;;;;7.80;4.57;;;13.80;96.00;;;;;;5005467;28;20049;-61
2023/10/18 10:54:51;;;;;;;8.73;4.70;;;13.90;96.20;;;;;;5000088;28;20022;-57
2023/10/18 10:57:17;;;;;;;;;;;14.00;96.00;;;;;;5009525;28;20113;-59
2023/10/18 10:59:51;;;;;;;15.05;5.20;;;14.00;95.90;;;;;;5010976;28;19905;-56
2023/10/18 11:02:29;;;;;;;8.43;3.88;;;14.10;96.00;;;;;;5011098;28;20030;-58
2023/10/18 11:05:14;;;;;;;8.27;3.40;;;14.00;95.80;;;;;;4999616;28;20018;-60
2023/10/18 11:07:47;;;;;;;10.57;4.45;;;14.10;96.00;;;;;;5000592;28;20048;-57
2023/10/18 11:10:17;;;;;;;12.55;4.45;;;14.20;96.00;;;;;;5003193;28;20386;-60
2023/10/18 11:13:08;;;;;;;11.05;4.32;;;14.20;95.90;;;;;;5004554;28;20356;-59
2023/10/18 11:15:43;;;;;;;18.30;5.50;;;14.30;95.80;;;;;;5003469;28;20034;-56
2023/10/18 11:18:17;;;;;;;8.18;3.80;;;14.30;95.80;;;;;;4996791;28;20034;-62
2023/10/18 11:20:48;;;;;;;5.70;3.83;;;14.40;95.80;;;;;;5012700;28;20029;-57
2023/10/18 11:23:14;;;;;;;5.07;3.40;;;14.40;95.70;;;;;;5009443;28;20026;-67
2023/10/18 11:25:56;;;;;;;5.43;3.67;;;14.50;95.90;;;;;;5005847;28;20468;-59
2023/10/18 11:28:30;;;;;;;10.65;4.03;;;14.50;95.80;;;;;;5010738;28;20479;-58
2023/10/18 11:30:57;;;;;;;8.05;4.07;;;14.60;95.90;;;;;;5004043;28;20036;-60
2023/10/18 11:33:46;;;;;;;9.85;3.60;;;14.50;95.90;;;;;;5008738;28;20038;-58
2023/10/18 11:36:18;;;;;;;5.75;3.33;;;14.60;96.00;;;;;;5007997;28;20113;-58
2023/10/18 11:41:36;;;;;;;9.50;4.05;;;14.70;95.90;;;;;;5006506;28;20033;-58
2023/10/18 11:44:06;;;;;;;8.30;4.00;;;14.70;96.00;;;;;;5012254;28;20061;-58
2023/10/18 11:46:56;;;;;;;8.80;4.53;;;14.80;95.90;;;;;;5010692;28;20083;-60
2023/10/18 11:49:32;;;;;;;8.48;4.40;;;14.80;95.90;;;;;;4999376;28;20027;-59
2023/10/18 11:51:58;;;;;;;7.25;3.90;;;14.80;96.10;;;;;;5005590;28;20034;-60
2023/10/18 11:54:34;;;;;;;5.68;3.20;;;14.90;96.20;;;;;;5000807;28;20040;-56
2023/10/18 11:57:01;;;;;;;4.00;3.60;;;14.90;96.00;;;;;;5007018;28;20060;-58
2023/10/18 11:59:28;;;;;;;8.15;3.60;;;14.90;96.00;;;;;;5005723;28;20029;-64
2023/10/18 12:02:06;;;;;;;6.70;3.65;;;14.90;96.10;;;;;;4997108;28;20033;-58
2023/10/18 12:04:38;;;;;;;6.35;3.50;;;14.90;96.10;;;;;;5008029;28;20046;-66
2023/10/18 12:07:08;;;;;;;6.45;3.90;;;14.90;96.20;;;;;;5001707;28;20443;-68
2023/10/18 12:09:42;;;;;;;6.65;2.45;;;15.00;96.20;;;;;;4996799;28;20393;-72
2023/10/18 12:12:13;;;;;;;4.70;2.80;;;15.50;96.00;;;;;;4989944;28;20086;-70
2023/10/18 12:14:41;;;;;;;6.55;2.95;;;15.90;95.60;;;;;;5011085;28;20109;-71
2023/10/18 12:17:07;;;;;;;5.70;3.08;;;16.10;95.30;;;;;;4996545;28;20080;-67
2023/10/18 12:19:35;;;;;;;5.72;2.58;;;16.10;95.10;;;;;;4995363;28;20022;-64
2023/10/18 12:22:01;;;;;;;7.22;2.88;;;15.90;95.40;;;;;;5009521;28;20072;-64
2023/10/18 12:24:33;;;;;;;5.15;2.97;;;15.80;95.60;;;;;;5020166;28;20031;-64
2023/10/18 12:29:47;;;;;;;7.18;3.38;;;15.70;95.80;;;;;;5002084;28;20057;-67
2023/10/18 12:32:23;;;;;;;6.28;3.38;;;15.70;95.90;;;;;;4996034;28;20476;-65
2023/10/18 12:34:56;;;;;;;7.50;2.45;;;15.70;96.00;;;;;;5005488;28;20030;-65
2023/10/18 12:37:23;;;;;;;3.25;2.92;;;15.70;96.10;;;;;;5003685;28;20112;-66
2023/10/18 12:39:49;;;;;;;6.75;2.80;;;15.70;96.20;;;;;;5008617;28;20034;-67
2023/10/18 12:42:19;;;;;;;4.38;2.70;;;15.70;96.30;;;;;;5009878;28;20030;-68
2023/10/18 12:44:48;;;;;;;2.75;2.13;;;15.80;96.20;;;;;;5022383;28;20557;-63
2023/10/18 12:47:19;;;;;;;5.57;2.78;;;15.90;96.20;;;;;;5003397;28;20022;-67
2023/10/18 12:49:51;;;;;;;7.88;3.10;;;16.00;96.20;;;;;;5001410;28;20120;-68
2023/10/18 12:55:57;;;;;;;5.70;2.80;;;16.00;96.40;;;;;;5007160;28;20034;-66
2023/10/18 12:57:50;;;;;;;9.80;3.25;;;16.10;96.20;;;;;;5004991;28;20117;-67
2023/10/18 13:00:16;;;;;;;6.40;2.22;;;16.20;96.10;;;;;;5011503;28;20816;-67
2023/10/18 13:02:51;;;;;;;6.78;2.88;;;16.30;96.10;;;;;;5000137;28;20026;-66
2023/10/18 13:05:18;;;;;;;6.97;2.92;;;16.30;96.10;;;;;;5006126;28;20384;-67
2023/10/18 13:07:45;;;;;;;9.93;3.45;;;16.30;96.10;;;;;;4999378;28;20529;-67
2023/10/18 13:10:12;;;;;;;8.25;4.00;;;16.30;96.10;;;;;;4999970;28;20041;-63
2023/10/18 13:12:51;;;;;;;5.10;3.10;;;16.30;96.30;;;;;;5003385;28;20034;-63
2023/10/18 13:15:18;;;;;;;6.32;2.67;;;16.20;96.40;;;;;;5008830;28;20025;-66
2023/10/18 13:17:43;;;;;;;5.82;3.53;;;16.20;96.50;;;;;;5010397;28;20835;-65
2023/10/18 13:20:15;;;;;;;6.90;3.15;;;16.20;96.30;;;;;;5008165;28;20022;-65
2023/10/18 13:22:41;;;;;;;6.32;3.50;;;16.20;96.30;;;;;;5008943;28;20068;-63
2023/10/18 13:25:24;;;;;;;9.77;3.20;;;16.20;96.30;;;;;;5007853;28;20444;-66
2023/10/18 13:28:04;;;;;;;7.82;3.42;;;16.20;96.60;;;;;;5009721;28;20046;-65
2023/10/18 13:30:33;;;;;;;7.05;3.13;;;16.20;96.60;;;;;;5008115;28;20354;-64
2023/10/18 13:33:02;;;;;;;11.35;2.92;;;16.20;96.50;;;;;;5003702;28;20427;-62
2023/10/18 13:35:34;;;;;;;8.02;3.40;;;16.20;96.50;;;;;;5007491;28;20030;-66
2023/10/18 13:37:59;;;;;;;7.30;2.90;;;16.20;96.50;;;;;;5009384;28;20022;-66
2023/10/18 13:40:27;;;;;;;8.02;3.50;;;16.30;96.50;;;;;;5014067;28;20045;-67
2023/10/18 13:42:54;;;;;;;6.80;3.38;;;16.20;96.50;;;;;;5005242;28;20026;-69
2023/10/18 13:45:20;;;;;;;4.93;3.10;;;16.20;96.60;;;;;;5006869;28;20052;-70
2023/10/18 13:47:46;;;;;;;6.07;3.53;;;16.30;96.70;;;;;;5002571;28;20379;-65
2023/10/18 13:50:11;;;;;;;7.22;3.65;;;16.30;96.70;;;;;;5013406;28;20050;-66
2023/10/18 13:52:41;;;;;;;6.57;3.13;;;16.30;96.60;;;;;;4998962;28;20030;-69
2023/10/18 13:55:07;;;;;;;5.70;3.42;;;16.30;96.50;;;;;;5021433;28;20462;-67
2023/10/18 13:57:35;;;;;;;6.28;3.45;;;16.30;96.50;;;;;;5001439;28;20026;-69
2023/10/18 14:00:03;;;;;;;5.45;2.88;;;16.20;96.60;;;;;;5006069;28;20056;-68
2023/10/18 14:02:29;;;;;;;5.07;3.35;;;16.30;96.70;;;;;;4996787;28;20424;-66